sensor_id;sensor_type;location;lat;lon;timestamp;pressure;altitude;pressure_sealevel;temperature;humidity
72585;BME280;60618;40.084;32.908;2023-02-27T00:00:13;90065.13;;;7.92;53.00
72585;BME280;60618;40.084;32.908;2023-02-27T00:02:45;90069.22;;;7.93;52.84
72585;BME280;60618;40.084;32.908;2023-02-27T00:05:12;90068.63;;;7.89;52.78
72585;BME280;60618;40.084;32.908;2023-02-27T00:07:39;90059.16;;;7.60;53.92
72585;BME280;60618;40.084;32.908;2023-02-27T00:10:07;90054.44;;;7.55;53.91
72585;BME280;60618;40.084;32.908;2023-02-27T00:12:35;90060.25;;;7.32;54.87
72585;BME280;60618;40.084;32.908;2023-02-27T00:15:08;90049.41;;;7.08;55.23
72585;BME280;60618;40.084;32.908;2023-02-27T00:17:35;90043.84;;;7.15;55.17
72585;BME280;60618;40.084;32.908;2023-02-27T00:20:06;90050.69;;;7.34;54.31
72585;BME280;60618;40.084;32.908;2023-02-27T00:22:33;90049.41;;;7.48;54.05
72585;BME280;60618;40.084;32.908;2023-02-27T00:25:00;90040.00;;;7.47;54.13
72585;BME280;60618;40.084;32.908;2023-02-27T00:27:27;90035.88;;;7.46;54.06
72585;BME280;60618;40.084;32.908;2023-02-27T00:29:54;90041.47;;;7.57;53.64
72585;BME280;60618;40.084;32.908;2023-02-27T00:32:21;90032.34;;;7.58;53.81
72585;BME280;60618;40.084;32.908;2023-02-27T00:34:48;90039.44;;;7.71;53.31
72585;BME280;60618;40.084;32.908;2023-02-27T00:37:15;90037.97;;;7.69;53.40
72585;BME280;60618;40.084;32.908;2023-02-27T00:39:42;90034.72;;;7.65;53.64
72585;BME280;60618;40.084;32.908;2023-02-27T00:42:09;90051.38;;;7.66;53.82
72585;BME280;60618;40.084;32.908;2023-02-27T00:44:36;90047.97;;;7.65;53.50
72585;BME280;60618;40.084;32.908;2023-02-27T00:47:02;90049.47;;;7.26;55.04
72585;BME280;60618;40.084;32.908;2023-02-27T00:49:29;90054.50;;;7.33;54.45
72585;BME280;60618;40.084;32.908;2023-02-27T00:51:56;90059.28;;;7.48;54.29
72585;BME280;60618;40.084;32.908;2023-02-27T00:54:23;90055.03;;;6.79;56.46
72585;BME280;60618;40.084;32.908;2023-02-27T00:56:50;90050.34;;;6.83;55.78
72585;BME280;60618;40.084;32.908;2023-02-27T00:59:17;90051.31;;;7.07;55.28
72585;BME280;60618;40.084;32.908;2023-02-27T01:01:44;90058.00;;;7.21;54.87
72585;BME280;60618;40.084;32.908;2023-02-27T01:04:11;90058.31;;;7.23;54.49
72585;BME280;60618;40.084;32.908;2023-02-27T01:06:38;90074.03;;;7.18;54.90
72585;BME280;60618;40.084;32.908;2023-02-27T01:09:05;90061.66;;;7.15;54.98
72585;BME280;60618;40.084;32.908;2023-02-27T01:11:32;90054.03;;;7.26;54.60
72585;BME280;60618;40.084;32.908;2023-02-27T01:13:59;90042.28;;;7.27;55.27
72585;BME280;60618;40.084;32.908;2023-02-27T01:16:27;90050.81;;;6.91;56.07
72585;BME280;60618;40.084;32.908;2023-02-27T01:18:54;90050.69;;;6.94;55.79
72585;BME280;60618;40.084;32.908;2023-02-27T01:21:21;90056.63;;;7.07;55.20
72585;BME280;60618;40.084;32.908;2023-02-27T01:23:48;90057.56;;;7.23;54.63
72585;BME280;60618;40.084;32.908;2023-02-27T01:26:15;90058.94;;;6.96;55.79
72585;BME280;60618;40.084;32.908;2023-02-27T01:28:42;90063.66;;;6.70;56.45
72585;BME280;60618;40.084;32.908;2023-02-27T01:31:09;90066.63;;;6.50;57.48
72585;BME280;60618;40.084;32.908;2023-02-27T01:33:36;90074.50;;;6.41;58.21
72585;BME280;60618;40.084;32.908;2023-02-27T01:36:03;90076.16;;;6.26;58.42
72585;BME280;60618;40.084;32.908;2023-02-27T01:38:30;90065.75;;;6.10;59.01
72585;BME280;60618;40.084;32.908;2023-02-27T01:40:57;90069.72;;;5.92;58.84
72585;BME280;60618;40.084;32.908;2023-02-27T01:43:24;90073.53;;;5.91;58.70
72585;BME280;60618;40.084;32.908;2023-02-27T01:45:51;90082.84;;;6.18;58.03
72585;BME280;60618;40.084;32.908;2023-02-27T01:48:33;90084.22;;;6.44;56.52
72585;BME280;60618;40.084;32.908;2023-02-27T01:51:07;90087.91;;;6.47;57.07
72585;BME280;60618;40.084;32.908;2023-02-27T01:53:36;90092.53;;;6.34;57.15
72585;BME280;60618;40.084;32.908;2023-02-27T01:56:11;90099.34;;;6.22;57.19
72585;BME280;60618;40.084;32.908;2023-02-27T01:58:41;90106.38;;;6.38;56.56
72585;BME280;60618;40.084;32.908;2023-02-27T02:01:09;90111.50;;;6.19;56.83
72585;BME280;60618;40.084;32.908;2023-02-27T02:03:37;90119.19;;;6.05;57.51
72585;BME280;60618;40.084;32.908;2023-02-27T02:06:06;90106.13;;;6.23;57.04
72585;BME280;60618;40.084;32.908;2023-02-27T02:08:37;90107.38;;;6.31;56.71
72585;BME280;60618;40.084;32.908;2023-02-27T02:11:06;90108.34;;;6.46;56.61
72585;BME280;60618;40.084;32.908;2023-02-27T02:13:34;90108.28;;;6.59;55.67
72585;BME280;60618;40.084;32.908;2023-02-27T02:27:07;90123.53;;;6.33;57.05
72585;BME280;60618;40.084;32.908;2023-02-27T02:42:03;90131.31;;;6.15;56.65
72585;BME280;60618;40.084;32.908;2023-02-27T02:53:19;90138.69;;;5.34;59.71
72585;BME280;60618;40.084;32.908;2023-02-27T02:55:21;90128.66;;;5.04;60.76
72585;BME280;60618;40.084;32.908;2023-02-27T02:57:56;90142.81;;;5.10;60.54
72585;BME280;60618;40.084;32.908;2023-02-27T03:00:30;90151.44;;;4.98;60.95
72585;BME280;60618;40.084;32.908;2023-02-27T03:03:09;90141.81;;;4.91;61.11
72585;BME280;60618;40.084;32.908;2023-02-27T03:05:43;90147.22;;;4.88;61.06
72585;BME280;60618;40.084;32.908;2023-02-27T03:08:18;90149.44;;;5.02;61.29
72585;BME280;60618;40.084;32.908;2023-02-27T03:11:02;90147.94;;;4.46;63.84
72585;BME280;60618;40.084;32.908;2023-02-27T03:16:06;90166.56;;;4.97;60.88
72585;BME280;60618;40.084;32.908;2023-02-27T03:18:40;90168.75;;;4.99;61.32
72585;BME280;60618;40.084;32.908;2023-02-27T03:21:18;90170.78;;;5.20;60.30
72585;BME280;60618;40.084;32.908;2023-02-27T03:23:49;90165.13;;;5.34;59.58
72585;BME280;60618;40.084;32.908;2023-02-27T03:26:23;90171.66;;;5.43;59.40
72585;BME280;60618;40.084;32.908;2023-02-27T03:29:10;90165.31;;;5.53;59.27
72585;BME280;60618;40.084;32.908;2023-02-27T03:31:55;90172.84;;;5.67;58.61
72585;BME280;60618;40.084;32.908;2023-02-27T03:34:29;90156.53;;;5.81;58.15
72585;BME280;60618;40.084;32.908;2023-02-27T03:39:45;90140.03;;;6.03;57.39
72585;BME280;60618;40.084;32.908;2023-02-27T03:45:04;90150.41;;;5.84;56.87
72585;BME280;60618;40.084;32.908;2023-02-27T03:47:32;90152.31;;;5.46;58.67
72585;BME280;60618;40.084;32.908;2023-02-27T03:50:00;90152.72;;;5.57;58.35
72585;BME280;60618;40.084;32.908;2023-02-27T03:52:28;90145.25;;;5.04;60.41
72585;BME280;60618;40.084;32.908;2023-02-27T03:55:07;90143.75;;;5.29;59.33
72585;BME280;60618;40.084;32.908;2023-02-27T03:57:35;90139.50;;;4.93;60.95
72585;BME280;60618;40.084;32.908;2023-02-27T04:00:04;90138.38;;;5.07;60.17
72585;BME280;60618;40.084;32.908;2023-02-27T04:02:32;90147.13;;;5.29;59.46
72585;BME280;60618;40.084;32.908;2023-02-27T04:04:59;90155.28;;;5.48;59.17
72585;BME280;60618;40.084;32.908;2023-02-27T04:13:42;90165.72;;;4.13;64.51
72585;BME280;60618;40.084;32.908;2023-02-27T04:16:38;90157.56;;;4.53;62.65
72585;BME280;60618;40.084;32.908;2023-02-27T04:22:24;90169.38;;;4.90;60.96
72585;BME280;60618;40.084;32.908;2023-02-27T04:25:42;90168.63;;;4.48;62.34
72585;BME280;60618;40.084;32.908;2023-02-27T04:28:21;90169.56;;;4.70;61.43
72585;BME280;60618;40.084;32.908;2023-02-27T04:31:20;90172.94;;;4.71;61.61
72585;BME280;60618;40.084;32.908;2023-02-27T04:33:48;90175.41;;;4.91;60.81
72585;BME280;60618;40.084;32.908;2023-02-27T04:36:38;90176.81;;;5.08;60.27
72585;BME280;60618;40.084;32.908;2023-02-27T04:39:15;90185.78;;;5.10;60.66
72585;BME280;60618;40.084;32.908;2023-02-27T04:41:49;90188.03;;;4.70;61.52
72585;BME280;60618;40.084;32.908;2023-02-27T04:44:20;90193.63;;;4.85;61.43
72585;BME280;60618;40.084;32.908;2023-02-27T04:46:49;90189.25;;;4.95;60.97
72585;BME280;60618;40.084;32.908;2023-02-27T04:49:32;90194.03;;;5.12;60.87
72585;BME280;60618;40.084;32.908;2023-02-27T04:52:07;90192.69;;;5.33;59.71
72585;BME280;60618;40.084;32.908;2023-02-27T04:58:03;90197.25;;;5.71;58.99
72585;BME280;60618;40.084;32.908;2023-02-27T05:00:12;90194.47;;;5.75;59.13
72585;BME280;60618;40.084;32.908;2023-02-27T05:02:44;90211.63;;;5.95;58.82
72585;BME280;60618;40.084;32.908;2023-02-27T05:05:20;90216.63;;;5.93;59.06
72585;BME280;60618;40.084;32.908;2023-02-27T05:07:55;90214.59;;;5.59;59.19
72585;BME280;60618;40.084;32.908;2023-02-27T05:10:36;90232.63;;;5.35;60.77
72585;BME280;60618;40.084;32.908;2023-02-27T05:13:11;90224.03;;;5.19;61.11
72585;BME280;60618;40.084;32.908;2023-02-27T05:15:47;90237.59;;;5.33;60.92
72585;BME280;60618;40.084;32.908;2023-02-27T05:18:18;90234.75;;;5.40;60.83
72585;BME280;60618;40.084;32.908;2023-02-27T05:24:31;90247.03;;;5.60;60.64
72585;BME280;60618;40.084;32.908;2023-02-27T05:29:55;90250.41;;;5.60;61.10
72585;BME280;60618;40.084;32.908;2023-02-27T05:37:42;90263.91;;;5.50;61.59
72585;BME280;60618;40.084;32.908;2023-02-27T05:40:15;90256.94;;;5.01;63.01
72585;BME280;60618;40.084;32.908;2023-02-27T05:42:51;90263.22;;;4.91;64.60
72585;BME280;60618;40.084;32.908;2023-02-27T05:45:27;90263.91;;;4.95;63.60
72585;BME280;60618;40.084;32.908;2023-02-27T05:47:59;90273.16;;;4.87;63.55
72585;BME280;60618;40.084;32.908;2023-02-27T05:50:30;90275.78;;;5.16;62.90
72585;BME280;60618;40.084;32.908;2023-02-27T05:53:02;90287.34;;;5.35;62.41
72585;BME280;60618;40.084;32.908;2023-02-27T05:55:51;90293.94;;;5.56;62.13
72585;BME280;60618;40.084;32.908;2023-02-27T05:58:26;90292.88;;;5.53;61.16
72585;BME280;60618;40.084;32.908;2023-02-27T06:01:00;90289.50;;;5.53;62.60
72585;BME280;60618;40.084;32.908;2023-02-27T06:03:29;90294.06;;;5.78;61.27
72585;BME280;60618;40.084;32.908;2023-02-27T06:05:59;90294.16;;;5.74;62.87
72585;BME280;60618;40.084;32.908;2023-02-27T06:08:27;90295.59;;;5.08;64.23
72585;BME280;60618;40.084;32.908;2023-02-27T06:10:55;90300.47;;;4.80;65.74
72585;BME280;60618;40.084;32.908;2023-02-27T06:13:35;90307.13;;;4.85;65.54
72585;BME280;60618;40.084;32.908;2023-02-27T06:16:09;90302.09;;;4.91;64.61
72585;BME280;60618;40.084;32.908;2023-02-27T06:18:36;90305.00;;;5.09;64.19
72585;BME280;60618;40.084;32.908;2023-02-27T06:21:07;90306.06;;;5.40;63.59
72585;BME280;60618;40.084;32.908;2023-02-27T06:23:37;90302.00;;;5.23;65.40
72585;BME280;60618;40.084;32.908;2023-02-27T06:26:21;90298.09;;;4.70;66.02
72585;BME280;60618;40.084;32.908;2023-02-27T06:28:56;90300.00;;;4.69;66.10
72585;BME280;60618;40.084;32.908;2023-02-27T06:31:23;90292.84;;;4.82;66.00
72585;BME280;60618;40.084;32.908;2023-02-27T06:33:52;90288.78;;;4.94;66.49
72585;BME280;60618;40.084;32.908;2023-02-27T06:36:32;90293.59;;;5.12;65.75
72585;BME280;60618;40.084;32.908;2023-02-27T06:38:59;90299.38;;;5.36;65.12
72585;BME280;60618;40.084;32.908;2023-02-27T06:41:43;90312.41;;;5.56;65.02
72585;BME280;60618;40.084;32.908;2023-02-27T06:44:10;90317.63;;;5.72;64.54
72585;BME280;60618;40.084;32.908;2023-02-27T06:46:43;90323.47;;;5.80;65.12
72585;BME280;60618;40.084;32.908;2023-02-27T06:49:18;90327.66;;;5.64;65.39
72585;BME280;60618;40.084;32.908;2023-02-27T06:51:58;90321.44;;;5.71;65.14
72585;BME280;60618;40.084;32.908;2023-02-27T06:54:34;90308.81;;;5.91;64.86
72585;BME280;60618;40.084;32.908;2023-02-27T06:57:08;90298.03;;;5.98;64.90
72585;BME280;60618;40.084;32.908;2023-02-27T06:59:42;90293.16;;;5.97;63.09
72585;BME280;60618;40.084;32.908;2023-02-27T07:02:14;90292.69;;;5.73;64.92
72585;BME280;60618;40.084;32.908;2023-02-27T07:04:51;90301.88;;;5.68;64.28
72585;BME280;60618;40.084;32.908;2023-02-27T07:07:31;90315.53;;;5.67;64.86
72585;BME280;60618;40.084;32.908;2023-02-27T07:10:12;90297.16;;;5.76;65.37
72585;BME280;60618;40.084;32.908;2023-02-27T07:12:42;90294.19;;;5.87;65.56
72585;BME280;60618;40.084;32.908;2023-02-27T07:15:23;90286.56;;;5.76;65.94
72585;BME280;60618;40.084;32.908;2023-02-27T07:17:57;90289.00;;;5.83;65.55
72585;BME280;60618;40.084;32.908;2023-02-27T07:20:35;90287.84;;;5.84;65.81
72585;BME280;60618;40.084;32.908;2023-02-27T07:23:16;90289.03;;;5.96;64.53
72585;BME280;60618;40.084;32.908;2023-02-27T07:25:55;90292.00;;;6.11;62.74
72585;BME280;60618;40.084;32.908;2023-02-27T07:28:43;90284.06;;;6.11;62.09
72585;BME280;60618;40.084;32.908;2023-02-27T07:31:13;90293.38;;;6.15;63.08
72585;BME280;60618;40.084;32.908;2023-02-27T07:34:01;90280.47;;;6.30;62.08
72585;BME280;60618;40.084;32.908;2023-02-27T07:36:35;90292.88;;;6.68;61.31
72585;BME280;60618;40.084;32.908;2023-02-27T07:39:27;90281.06;;;6.94;60.15
72585;BME280;60618;40.084;32.908;2023-02-27T07:42:07;90277.41;;;7.01;60.17
72585;BME280;60618;40.084;32.908;2023-02-27T07:44:37;90273.03;;;7.20;59.93
72585;BME280;60618;40.084;32.908;2023-02-27T07:47:26;90276.91;;;7.50;59.25
72585;BME280;60618;40.084;32.908;2023-02-27T07:50:07;90276.53;;;7.38;58.95
72585;BME280;60618;40.084;32.908;2023-02-27T07:52:50;90264.25;;;7.32;59.45
72585;BME280;60618;40.084;32.908;2023-02-27T07:55:27;90265.97;;;7.26;59.78
72585;BME280;60618;40.084;32.908;2023-02-27T07:58:20;90264.41;;;7.28;59.42
72585;BME280;60618;40.084;32.908;2023-02-27T08:00:55;90271.78;;;7.33;59.30
72585;BME280;60618;40.084;32.908;2023-02-27T08:03:39;90268.69;;;7.35;58.87
72585;BME280;60618;40.084;32.908;2023-02-27T08:06:20;90271.72;;;7.46;58.96
72585;BME280;60618;40.084;32.908;2023-02-27T08:08:52;90269.28;;;7.61;58.83
72585;BME280;60618;40.084;32.908;2023-02-27T08:11:19;90267.84;;;7.38;58.41
72585;BME280;60618;40.084;32.908;2023-02-27T08:13:51;90261.06;;;7.37;58.79
72585;BME280;60618;40.084;32.908;2023-02-27T08:16:30;90266.81;;;7.66;58.86
72585;BME280;60618;40.084;32.908;2023-02-27T08:19:03;90273.34;;;7.75;57.90
72585;BME280;60618;40.084;32.908;2023-02-27T08:21:39;90271.00;;;7.55;58.37
72585;BME280;60618;40.084;32.908;2023-02-27T08:24:08;90264.69;;;7.52;58.80
72585;BME280;60618;40.084;32.908;2023-02-27T08:26:39;90261.28;;;7.52;58.76
72585;BME280;60618;40.084;32.908;2023-02-27T08:29:14;90262.97;;;7.58;59.46
72585;BME280;60618;40.084;32.908;2023-02-27T08:31:50;90269.38;;;7.79;59.28
72585;BME280;60618;40.084;32.908;2023-02-27T08:34:24;90264.97;;;8.16;58.12
72585;BME280;60618;40.084;32.908;2023-02-27T08:36:58;90269.06;;;8.39;57.89
72585;BME280;60618;40.084;32.908;2023-02-27T08:39:35;90270.75;;;8.55;55.78
72585;BME280;60618;40.084;32.908;2023-02-27T08:42:08;90275.00;;;8.62;55.65
72585;BME280;60618;40.084;32.908;2023-02-27T08:44:35;90270.03;;;8.64;54.97
72585;BME280;60618;40.084;32.908;2023-02-27T08:47:02;90269.16;;;8.85;55.66
72585;BME280;60618;40.084;32.908;2023-02-27T08:49:29;90271.66;;;9.07;52.60
72585;BME280;60618;40.084;32.908;2023-02-27T08:51:56;90286.75;;;9.47;52.71
72585;BME280;60618;40.084;32.908;2023-02-27T08:54:23;90291.22;;;10.01;51.91
72585;BME280;60618;40.084;32.908;2023-02-27T08:56:50;90292.47;;;10.33;49.43
72585;BME280;60618;40.084;32.908;2023-02-27T08:59:17;90285.22;;;10.67;50.77
72585;BME280;60618;40.084;32.908;2023-02-27T09:01:44;90283.19;;;10.86;46.88
72585;BME280;60618;40.084;32.908;2023-02-27T09:04:10;90274.63;;;10.82;43.63
72585;BME280;60618;40.084;32.908;2023-02-27T09:06:37;90277.34;;;11.20;45.82
72585;BME280;60618;40.084;32.908;2023-02-27T09:09:05;90290.00;;;11.11;46.76
72585;BME280;60618;40.084;32.908;2023-02-27T09:11:32;90286.09;;;10.73;43.75
72585;BME280;60618;40.084;32.908;2023-02-27T09:13:59;90280.34;;;10.65;44.22
72585;BME280;60618;40.084;32.908;2023-02-27T09:16:26;90275.97;;;10.53;46.47
72585;BME280;60618;40.084;32.908;2023-02-27T09:18:54;90282.41;;;10.37;46.12
72585;BME280;60618;40.084;32.908;2023-02-27T09:21:21;90266.56;;;10.67;45.02
72585;BME280;60618;40.084;32.908;2023-02-27T09:23:48;90275.88;;;10.95;46.18
72585;BME280;60618;40.084;32.908;2023-02-27T09:26:15;90268.22;;;11.12;47.82
72585;BME280;60618;40.084;32.908;2023-02-27T09:28:42;90272.38;;;11.52;47.14
72585;BME280;60618;40.084;32.908;2023-02-27T09:31:09;90265.88;;;11.82;45.95
72585;BME280;60618;40.084;32.908;2023-02-27T09:33:37;90264.63;;;11.54;45.25
72585;BME280;60618;40.084;32.908;2023-02-27T09:36:05;90265.63;;;11.56;45.75
72585;BME280;60618;40.084;32.908;2023-02-27T09:38:33;90253.81;;;12.16;44.93
72585;BME280;60618;40.084;32.908;2023-02-27T09:41:01;90251.72;;;12.06;43.08
72585;BME280;60618;40.084;32.908;2023-02-27T09:43:38;90255.41;;;12.58;42.96
72585;BME280;60618;40.084;32.908;2023-02-27T09:46:16;90266.63;;;12.62;43.11
72585;BME280;60618;40.084;32.908;2023-02-27T09:48:50;90260.03;;;12.43;43.16
72585;BME280;60618;40.084;32.908;2023-02-27T09:51:19;90271.56;;;12.19;43.38
72585;BME280;60618;40.084;32.908;2023-02-27T09:53:51;90269.56;;;12.14;43.35
72585;BME280;60618;40.084;32.908;2023-02-27T09:56:32;90269.28;;;12.12;44.54
72585;BME280;60618;40.084;32.908;2023-02-27T09:59:40;90270.94;;;12.25;43.15
72585;BME280;60618;40.084;32.908;2023-02-27T10:02:36;90267.44;;;12.18;43.36
72585;BME280;60618;40.084;32.908;2023-02-27T10:05:25;90260.63;;;12.17;42.98
72585;BME280;60618;40.084;32.908;2023-02-27T10:10:51;90245.34;;;12.18;42.81
72585;BME280;60618;40.084;32.908;2023-02-27T10:13:29;90254.13;;;12.39;42.28
72585;BME280;60618;40.084;32.908;2023-02-27T10:16:01;90245.22;;;12.42;43.66
72585;BME280;60618;40.084;32.908;2023-02-27T10:21:14;90242.66;;;12.88;41.98
72585;BME280;60618;40.084;32.908;2023-02-27T10:23:52;90238.88;;;12.95;41.08
72585;BME280;60618;40.084;32.908;2023-02-27T10:26:35;90235.38;;;12.89;41.51
72585;BME280;60618;40.084;32.908;2023-02-27T10:29:27;90235.78;;;12.82;40.71
72585;BME280;60618;40.084;32.908;2023-02-27T10:37:42;90231.09;;;13.17;41.09
72585;BME280;60618;40.084;32.908;2023-02-27T10:40:13;90225.81;;;13.02;40.91
72585;BME280;60618;40.084;32.908;2023-02-27T10:42:40;90223.50;;;12.90;40.65
72585;BME280;60618;40.084;32.908;2023-02-27T10:45:13;90219.84;;;12.52;40.55
72585;BME280;60618;40.084;32.908;2023-02-27T10:47:40;90205.91;;;12.63;40.61
72585;BME280;60618;40.084;32.908;2023-02-27T10:50:31;90211.19;;;12.77;40.01
72585;BME280;60618;40.084;32.908;2023-02-27T10:53:01;90194.13;;;12.75;39.18
72585;BME280;60618;40.084;32.908;2023-02-27T10:55:32;90185.72;;;12.82;39.05
72585;BME280;60618;40.084;32.908;2023-02-27T10:58:01;90186.88;;;12.96;38.12
72585;BME280;60618;40.084;32.908;2023-02-27T11:00:39;90185.78;;;13.08;38.62
72585;BME280;60618;40.084;32.908;2023-02-27T11:03:17;90182.22;;;13.37;39.03
72585;BME280;60618;40.084;32.908;2023-02-27T11:05:55;90193.09;;;13.54;39.15
72585;BME280;60618;40.084;32.908;2023-02-27T11:08:28;90192.56;;;13.50;37.92
72585;BME280;60618;40.084;32.908;2023-02-27T11:11:02;90194.59;;;13.34;38.38
72585;BME280;60618;40.084;32.908;2023-02-27T11:13:32;90189.66;;;13.27;37.95
72585;BME280;60618;40.084;32.908;2023-02-27T11:16:06;90184.78;;;13.26;37.96
72585;BME280;60618;40.084;32.908;2023-02-27T11:18:35;90188.06;;;13.15;37.12
72585;BME280;60618;40.084;32.908;2023-02-27T11:23:55;90189.50;;;13.37;36.94
72585;BME280;60618;40.084;32.908;2023-02-27T11:26:37;90196.72;;;13.51;37.33
72585;BME280;60618;40.084;32.908;2023-02-27T11:29:16;90192.25;;;13.68;36.70
72585;BME280;60618;40.084;32.908;2023-02-27T11:31:51;90204.59;;;13.91;36.21
72585;BME280;60618;40.084;32.908;2023-02-27T11:34:35;90200.47;;;13.64;35.73
72585;BME280;60618;40.084;32.908;2023-02-27T11:40:01;90197.09;;;13.96;35.24
72585;BME280;60618;40.084;32.908;2023-02-27T11:42:31;90201.19;;;13.91;35.26
72585;BME280;60618;40.084;32.908;2023-02-27T11:45:20;90198.56;;;13.97;35.04
72585;BME280;60618;40.084;32.908;2023-02-27T11:48:26;90196.50;;;14.12;35.16
72585;BME280;60618;40.084;32.908;2023-02-27T11:55:53;90199.25;;;14.23;35.42
72585;BME280;60618;40.084;32.908;2023-02-27T11:58:22;90195.97;;;14.39;35.10
72585;BME280;60618;40.084;32.908;2023-02-27T12:00:57;90202.44;;;14.59;34.71
72585;BME280;60618;40.084;32.908;2023-02-27T12:05:57;90198.84;;;15.27;33.01
72585;BME280;60618;40.084;32.908;2023-02-27T12:09:05;90185.19;;;15.36;33.98
72585;BME280;60618;40.084;32.908;2023-02-27T12:11:41;90181.75;;;15.19;33.61
72585;BME280;60618;40.084;32.908;2023-02-27T12:14:21;90178.63;;;14.72;34.15
72585;BME280;60618;40.084;32.908;2023-02-27T12:17:34;90178.09;;;14.62;34.13
72585;BME280;60618;40.084;32.908;2023-02-27T12:20:27;90176.81;;;14.52;35.02
72585;BME280;60618;40.084;32.908;2023-02-27T12:22:55;90176.03;;;14.46;33.80
72585;BME280;60618;40.084;32.908;2023-02-27T12:25:41;90175.59;;;14.53;33.53
72585;BME280;60618;40.084;32.908;2023-02-27T12:28:22;90179.38;;;14.78;32.84
72585;BME280;60618;40.084;32.908;2023-02-27T12:34:03;90177.47;;;14.84;33.93
72585;BME280;60618;40.084;32.908;2023-02-27T12:36:30;90187.22;;;14.87;34.17
72585;BME280;60618;40.084;32.908;2023-02-27T12:38:57;90177.91;;;14.77;33.54
72585;BME280;60618;40.084;32.908;2023-02-27T12:41:40;90177.19;;;14.82;32.82
72585;BME280;60618;40.084;32.908;2023-02-27T12:49:49;90181.44;;;14.52;34.71
72585;BME280;60618;40.084;32.908;2023-02-27T12:54:55;90173.84;;;14.98;33.49
72585;BME280;60618;40.084;32.908;2023-02-27T13:01:04;90172.34;;;14.86;33.44
72585;BME280;60618;40.084;32.908;2023-02-27T13:14:49;90180.25;;;15.18;33.16
72585;BME280;60618;40.084;32.908;2023-02-27T13:18:05;90179.59;;;15.28;33.53
72585;BME280;60618;40.084;32.908;2023-02-27T13:25:18;90171.47;;;15.12;33.27
72585;BME280;60618;40.084;32.908;2023-02-27T13:27:50;90167.84;;;15.20;32.25
72585;BME280;60618;40.084;32.908;2023-02-27T13:38:44;90160.44;;;14.98;32.03
72585;BME280;60618;40.084;32.908;2023-02-27T13:46:46;90145.00;;;14.82;33.41
72585;BME280;60618;40.084;32.908;2023-02-27T13:49:21;90148.38;;;14.66;33.06
72585;BME280;60618;40.084;32.908;2023-02-27T13:52:03;90151.75;;;14.61;33.03
72585;BME280;60618;40.084;32.908;2023-02-27T13:54:32;90145.91;;;14.57;33.39
72585;BME280;60618;40.084;32.908;2023-02-27T13:57:23;90150.53;;;14.62;33.34
72585;BME280;60618;40.084;32.908;2023-02-27T13:59:55;90145.50;;;14.75;33.05
72585;BME280;60618;40.084;32.908;2023-02-27T14:04:52;90149.41;;;14.74;33.46
72585;BME280;60618;40.084;32.908;2023-02-27T14:07:23;90154.91;;;14.59;34.13
72585;BME280;60618;40.084;32.908;2023-02-27T14:10:03;90150.28;;;14.60;34.29
72585;BME280;60618;40.084;32.908;2023-02-27T14:12:40;90155.88;;;14.56;34.42
72585;BME280;60618;40.084;32.908;2023-02-27T14:17:54;90148.38;;;14.29;35.28
72585;BME280;60618;40.084;32.908;2023-02-27T14:23:25;90143.69;;;14.18;35.88
72585;BME280;60618;40.084;32.908;2023-02-27T14:25:58;90149.03;;;14.18;35.75
72585;BME280;60618;40.084;32.908;2023-02-27T14:28:45;90151.69;;;14.12;36.17
72585;BME280;60618;40.084;32.908;2023-02-27T14:31:25;90149.16;;;13.98;36.69
72585;BME280;60618;40.084;32.908;2023-02-27T14:33:58;90156.69;;;13.94;37.36
72585;BME280;60618;40.084;32.908;2023-02-27T14:36:27;90156.16;;;13.89;37.97
72585;BME280;60618;40.084;32.908;2023-02-27T14:38:58;90150.28;;;13.85;37.56
72585;BME280;60618;40.084;32.908;2023-02-27T14:44:02;90154.81;;;13.74;38.44
72585;BME280;60618;40.084;32.908;2023-02-27T14:46:36;90147.69;;;13.65;38.69
72585;BME280;60618;40.084;32.908;2023-02-27T14:49:22;90158.59;;;13.61;38.56
72585;BME280;60618;40.084;32.908;2023-02-27T14:51:50;90162.91;;;13.53;39.16
72585;BME280;60618;40.084;32.908;2023-02-27T14:54:25;90170.78;;;13.37;38.88
72585;BME280;60618;40.084;32.908;2023-02-27T14:56:58;90169.00;;;13.28;38.89
72585;BME280;60618;40.084;32.908;2023-02-27T14:59:40;90168.25;;;13.27;38.82
72585;BME280;60618;40.084;32.908;2023-02-27T15:04:41;90173.63;;;13.07;38.67
72585;BME280;60618;40.084;32.908;2023-02-27T15:07:19;90174.81;;;13.06;38.97
72585;BME280;60618;40.084;32.908;2023-02-27T15:09:50;90179.31;;;12.94;39.56
72585;BME280;60618;40.084;32.908;2023-02-27T15:12:20;90189.69;;;12.87;39.57
72585;BME280;60618;40.084;32.908;2023-02-27T15:14:53;90186.72;;;12.85;39.36
72585;BME280;60618;40.084;32.908;2023-02-27T15:17:27;90189.69;;;12.87;39.35
72585;BME280;60618;40.084;32.908;2023-02-27T15:19:56;90182.06;;;12.79;39.32
72585;BME280;60618;40.084;32.908;2023-02-27T15:22:26;90190.34;;;12.82;39.27
72585;BME280;60618;40.084;32.908;2023-02-27T15:25:04;90195.41;;;12.79;39.65
72585;BME280;60618;40.084;32.908;2023-02-27T15:27:31;90193.94;;;12.78;39.10
72585;BME280;60618;40.084;32.908;2023-02-27T15:30:01;90197.75;;;12.72;38.79
72585;BME280;60618;40.084;32.908;2023-02-27T15:32:31;90200.63;;;12.68;38.47
72585;BME280;60618;40.084;32.908;2023-02-27T15:35:13;90209.84;;;12.67;39.03
72585;BME280;60618;40.084;32.908;2023-02-27T15:37:47;90211.97;;;12.63;38.65
72585;BME280;60618;40.084;32.908;2023-02-27T15:40:19;90215.59;;;12.60;38.96
72585;BME280;60618;40.084;32.908;2023-02-27T15:42:47;90210.16;;;12.55;38.64
72585;BME280;60618;40.084;32.908;2023-02-27T15:45:18;90218.91;;;12.55;38.69
72585;BME280;60618;40.084;32.908;2023-02-27T15:47:46;90224.00;;;12.53;38.71
72585;BME280;60618;40.084;32.908;2023-02-27T15:53:20;90213.94;;;12.48;38.92
72585;BME280;60618;40.084;32.908;2023-02-27T15:56:06;90233.84;;;12.47;38.58
72585;BME280;60618;40.084;32.908;2023-02-27T15:58:38;90230.66;;;12.43;38.54